Time;durP1;ratioP1;P1;durP2;ratioP2;P2;SDS_P1;SDS_P2;PMS_P1;PMS_P2;Temp;Humidity;BMP_temperature;BMP_pressure;BME280_temperature;BME280_humidity;BME280_pressure;Samples;Min_cycle;Max_cycle;Signal;HPM_P1;HPM_P2
2022/03/10 00:01:28;;;;;;;15.97;12.57;;;;;;;5.16;60.18;94756.94;5049739;28;20218;-75
2022/03/10 00:03:55;;;;;;;15.27;11.33;;;;;;;5.12;59.92;94758.88;5048275;28;20658;-76
2022/03/10 00:06:22;;;;;;;17.70;11.07;;;;;;;5.07;60.30;94748.25;5049993;28;20191;-76
2022/03/10 00:08:50;;;;;;;13.80;11.70;;;;;;;5.15;60.39;94763.75;5049841;28;20655;-76
2022/03/10 00:11:17;;;;;;;15.43;11.20;;;;;;;5.14;60.42;94757.06;5050158;28;20183;-76
2022/03/10 00:13:43;;;;;;;15.90;11.70;;;;;;;5.13;60.34;94754.59;5049454;28;20183;-76
2022/03/10 00:16:10;;;;;;;16.77;10.50;;;;;;;5.11;60.37;94752.19;5050360;28;20215;-75
2022/03/10 00:18:37;;;;;;;15.80;11.23;;;;;;;4.95;60.48;94733.84;5049650;28;20195;-76
2022/03/10 00:21:04;;;;;;;18.30;11.93;;;;;;;5.09;60.42;94755.72;5050202;28;20725;-76
2022/03/10 00:23:31;;;;;;;17.20;11.90;;;;;;;5.06;60.60;94750.88;5049786;28;20661;-76
2022/03/10 00:25:59;;;;;;;13.60;10.90;;;;;;;5.03;60.67;94752.69;5049533;28;20214;-76
2022/03/10 00:28:26;;;;;;;12.87;11.13;;;;;;;4.91;60.61;94729.91;5049580;28;20195;-76
2022/03/10 00:30:53;;;;;;;16.90;11.33;;;;;;;5.01;60.73;94748.66;5048839;28;20589;-74
2022/03/10 00:33:20;;;;;;;15.93;10.87;;;;;;;4.66;60.49;94692.72;5049617;28;20198;-77
2022/03/10 00:35:48;;;;;;;14.43;10.63;;;;;;;4.98;60.65;94746.31;5049591;28;20246;-77
2022/03/10 00:38:15;;;;;;;14.87;11.57;;;;;;;4.75;60.71;94718.28;5049783;28;20226;-76
2022/03/10 00:40:42;;;;;;;15.20;11.03;;;;;;;4.81;60.60;94719.56;5049474;28;20205;-76
2022/03/10 00:43:12;;;;;;;12.77;9.97;;;;;;;4.95;60.48;94741.44;5051293;28;20214;-77
2022/03/10 00:45:40;;;;;;;14.47;11.10;;;;;;;4.92;60.58;94739.94;5053520;28;20587;-76
2022/03/10 00:48:09;;;;;;;12.80;10.83;;;;;;;4.90;60.60;94739.22;5052808;28;20676;-77
2022/03/10 00:50:36;;;;;;;13.10;10.57;;;;;;;4.89;60.69;94739.34;5053845;28;20218;-77
2022/03/10 00:53:02;;;;;;;12.40;10.43;;;;;;;4.73;60.67;94721.81;5053869;28;20187;-76
2022/03/10 00:55:29;;;;;;;14.30;10.30;;;;;;;4.74;60.79;94718.34;5053282;28;20214;-76
2022/03/10 00:57:56;;;;;;;14.17;10.20;;;;;;;4.69;60.55;94706.00;5053689;28;20210;-77
2022/03/10 01:00:28;;;;;;;13.57;10.50;;;;;;;4.84;60.69;94732.03;5053595;28;20179;-77
2022/03/10 01:02:55;;;;;;;13.50;10.63;;;;;;;4.83;60.71;94738.00;5053126;28;20199;-77
2022/03/10 01:05:22;;;;;;;16.10;10.77;;;;;;;4.82;60.78;94728.78;5053756;28;20183;-76
2022/03/10 01:07:49;;;;;;;11.83;10.30;;;;;;;4.81;60.69;94728.91;5053122;28;20194;-77
2022/03/10 01:10:17;;;;;;;13.83;10.43;;;;;;;4.69;60.67;94716.13;5053355;28;20194;-77
2022/03/10 01:12:45;;;;;;;13.67;10.27;;;;;;;4.78;60.93;94733.25;5052748;28;20277;-75
2022/03/10 01:15:12;;;;;;;14.80;10.93;;;;;;;4.50;60.84;94682.81;5052934;28;20274;-75
2022/03/10 01:17:41;;;;;;;14.33;10.70;;;;;;;4.76;60.77;94729.22;5052848;28;20210;-76
2022/03/10 01:20:08;;;;;;;13.13;9.77;;;;;;;4.76;60.78;94729.22;5052993;28;20233;-76
2022/03/10 01:22:35;;;;;;;16.23;10.70;;;;;;;4.75;60.85;94728.41;5052529;28;20199;-75
2022/03/10 01:25:02;;;;;;;14.27;10.33;;;;;;;4.68;60.75;94717.03;5053182;28;20226;-76
2022/03/10 01:27:29;;;;;;;12.67;9.80;;;;;;;4.23;60.85;94645.75;5052545;28;20187;-75
2022/03/10 01:29:56;;;;;;;12.80;10.53;;;;;;;4.65;60.73;94717.25;5052923;28;20596;-75
2022/03/10 01:32:23;;;;;;;12.20;9.80;;;;;;;4.72;60.65;94731.13;5052368;28;20194;-75
2022/03/10 01:34:52;;;;;;;12.90;10.27;;;;;;;4.70;60.84;94720.28;5053108;28;20194;-77
2022/03/10 01:37:19;;;;;;;14.50;10.20;;;;;;;4.64;60.85;94708.03;5052200;28;20698;-75
2022/03/10 01:39:46;;;;;;;11.13;9.60;;;;;;;4.68;60.79;94722.09;5052728;28;20194;-76
2022/03/10 01:42:13;;;;;;;12.87;9.33;;;;;;;4.40;60.75;94680.06;5052628;28;20202;-76
2022/03/10 01:44:41;;;;;;;12.97;10.03;;;;;;;4.60;60.85;94710.88;5052995;28;20214;-76
2022/03/10 01:47:08;;;;;;;11.07;9.40;;;;;;;4.42;61.12;94693.44;5052361;28;20210;-78
2022/03/10 01:49:35;;;;;;;13.07;9.90;;;;;;;4.65;60.74;94719.78;5052147;28;20199;-76
2022/03/10 01:52:04;;;;;;;12.07;9.77;;;;;;;4.56;60.91;94707.72;5052588;28;20191;-75
2022/03/10 01:54:31;;;;;;;14.20;10.47;;;;;;;4.62;60.72;94714.09;5031722;28;20578;-75
2022/03/10 01:57:00;;;;;;;15.40;10.60;;;;;;;4.65;60.79;94716.44;5045996;28;20215;-76
2022/03/10 01:59:28;;;;;;;17.20;10.63;;;;;;;4.57;60.67;94716.94;5051984;28;20224;-77
2022/03/10 02:01:55;;;;;;;13.43;11.13;;;;;;;4.57;61.04;94716.94;5052226;28;20183;-76
2022/03/10 02:04:21;;;;;;;12.57;10.13;;;;;;;4.57;60.83;94719.47;5052326;28;20187;-77
2022/03/10 02:06:49;;;;;;;13.20;10.07;;;;;;;4.62;60.82;94721.69;5051734;28;20678;-76
2022/03/10 02:12:02;;;;;;;13.57;10.63;;;;;;;4.58;60.93;94718.56;5050515;28;20247;-75
2022/03/10 02:17:22;;;;;;;11.43;9.57;;;;;;;4.55;60.94;94723.84;5051996;28;20217;-76
2022/03/10 02:19:50;;;;;;;12.93;10.43;;;;;;;4.22;61.02;94676.19;5051679;28;20227;-76
2022/03/10 02:22:20;;;;;;;12.90;9.73;;;;;;;4.53;60.95;94723.94;5051745;28;20286;-76
2022/03/10 02:24:48;;;;;;;14.77;10.23;;;;;;;4.52;61.03;94729.91;5051599;28;20633;-75
2022/03/10 02:27:18;;;;;;;11.60;9.53;;;;;;;4.25;61.07;94679.34;5050851;28;20195;-76
2022/03/10 02:29:45;;;;;;;15.00;10.93;;;;;;;4.51;61.02;94719.88;5051558;28;20394;-77
2022/03/10 02:32:12;;;;;;;15.83;10.70;;;;;;;4.50;60.86;94731.72;5051343;28;20202;-76
2022/03/10 02:34:40;;;;;;;14.30;10.37;;;;;;;4.50;61.02;94724.13;5051266;28;20195;-75
2022/03/10 02:37:09;;;;;;;15.47;11.23;;;;;;;4.50;61.08;94733.44;5050996;28;20222;-76
2022/03/10 02:39:38;;;;;;;13.27;10.23;;;;;;;4.50;61.00;94730.91;5051215;28;20187;-77
2022/03/10 02:42:06;;;;;;;13.50;9.67;;;;;;;4.43;61.05;94727.97;5051717;28;20202;-75
2022/03/10 02:44:33;;;;;;;13.23;10.37;;;;;;;4.49;60.99;94734.34;5051295;28;20194;-76
2022/03/10 02:47:00;;;;;;;15.10;11.77;;;;;;;4.51;60.76;94737.59;5051351;28;20191;-76
2022/03/10 02:49:27;;;;;;;13.60;10.33;;;;;;;4.50;61.07;94731.72;5051169;28;20687;-76
2022/03/10 02:51:54;;;;;;;14.90;11.67;;;;;;;4.51;61.06;94738.41;5050729;28;20206;-75
2022/03/10 02:54:21;;;;;;;12.53;10.50;;;;;;;4.51;61.11;94737.59;5050817;28;20797;-75
2022/03/10 02:56:49;;;;;;;13.87;10.60;;;;;;;4.50;61.05;94739.31;5050891;28;20234;-76
2022/03/10 02:59:16;;;;;;;14.23;10.50;;;;;;;4.49;61.27;94737.72;5050822;28;20195;-76
2022/03/10 03:01:43;;;;;;;14.93;10.33;;;;;;;4.49;61.22;94735.19;5051204;28;20202;-76
2022/03/10 03:04:10;;;;;;;14.30;11.20;;;;;;;4.47;61.21;94739.50;5051490;28;20183;-76
2022/03/10 03:06:37;;;;;;;18.13;12.13;;;;;;;3.98;61.38;94669.31;5050059;28;20202;-76
2022/03/10 03:09:04;;;;;;;16.27;12.40;;;;;;;4.46;61.36;94748.03;5050896;28;20195;-76
2022/03/10 03:11:31;;;;;;;15.43;11.20;;;;;;;4.41;60.98;94747.53;5050722;28;20199;-76
2022/03/10 03:13:59;;;;;;;12.53;10.57;;;;;;;4.27;60.74;94729.84;5050699;28;20260;-77
2022/03/10 03:16:27;;;;;;;14.43;10.40;;;;;;;4.26;60.63;94739.19;5050636;28;20223;-76
2022/03/10 03:18:53;;;;;;;12.87;9.97;;;;;;;4.15;60.20;94733.19;5050694;28;20233;-76
2022/03/10 03:21:20;;;;;;;13.13;10.23;;;;;;;3.93;59.80;94700.84;5049796;28;20662;-76
2022/03/10 03:23:47;;;;;;;12.60;9.40;;;;;;;4.22;59.66;94747.88;5050494;28;20566;-76
2022/03/10 03:26:14;;;;;;;13.30;9.40;;;;;;;4.16;59.28;94750.00;5050555;28;20650;-76
2022/03/10 03:28:41;;;;;;;14.83;9.97;;;;;;;3.96;59.05;94736.88;5050783;28;20202;-75
2022/03/10 03:31:11;;;;;;;14.70;10.33;;;;;;;4.03;58.80;94750.78;5050405;28;20195;-77
2022/03/10 03:33:38;;;;;;;15.83;10.47;;;;;;;3.88;58.76;94743.31;5050419;28;20279;-76
2022/03/10 03:36:05;;;;;;;12.53;9.50;;;;;;;3.92;58.77;94758.22;5049994;28;20187;-77
2022/03/10 03:38:32;;;;;;;14.60;9.20;;;;;;;3.90;58.41;94774.41;5050391;28;20197;-74
2022/03/10 03:40:59;;;;;;;12.40;9.47;;;;;;;3.79;57.88;94757.34;5050846;28;20194;-75
2022/03/10 03:43:26;;;;;;;11.70;8.97;;;;;;;3.82;57.22;94764.75;5050684;28;20210;-75
2022/03/10 03:45:55;;;;;;;12.97;8.40;;;;;;;3.48;57.20;94718.00;5050733;28;20706;-76
2022/03/10 03:48:24;;;;;;;9.97;8.07;;;;;;;3.72;56.61;94773.84;5050138;28;20708;-75
2022/03/10 03:50:51;;;;;;;10.50;8.23;;;;;;;3.69;56.52;94777.34;5050271;28;20199;-75
2022/03/10 03:53:18;;;;;;;9.33;7.73;;;;;;;3.65;56.01;94773.38;5049878;28;20205;-76
2022/03/10 03:55:45;;;;;;;11.27;7.90;;;;;;;3.52;55.96;94758.16;5049890;28;20202;-76
2022/03/10 03:58:12;;;;;;;10.40;7.20;;;;;;;3.50;55.82;94765.03;5050247;28;20218;-75
2022/03/10 04:00:39;;;;;;;8.20;6.47;;;;;;;3.30;55.63;94737.63;5050231;28;20214;-76
2022/03/10 04:03:09;;;;;;;9.53;7.60;;;;;;;3.46;55.58;94776.22;5049888;28;20186;-76
2022/03/10 04:05:39;;;;;;;10.13;7.10;;;;;;;3.41;55.57;94779.91;5050252;28;20226;-76
2022/03/10 04:08:06;;;;;;;10.23;7.70;;;;;;;3.41;55.55;94780.75;5050168;28;20191;-76
2022/03/10 04:10:33;;;;;;;10.43;7.10;;;;;;;2.96;55.37;94705.97;5050300;28;20183;-75
2022/03/10 04:13:00;;;;;;;10.23;7.33;;;;;;;3.47;55.35;94798.06;5049331;28;20190;-76
2022/03/10 04:15:27;;;;;;;11.10;7.73;;;;;;;3.45;55.23;94794.00;5050220;28;20199;-78
2022/03/10 04:17:53;;;;;;;9.57;8.03;;;;;;;3.21;54.88;94763.44;5052220;28;20219;-76
2022/03/10 04:20:20;;;;;;;12.20;7.70;;;;;;;3.35;54.83;94790.41;5054370;28;20710;-77
2022/03/10 04:22:49;;;;;;;10.70;7.13;;;;;;;3.16;54.82;94763.72;5054014;28;20650;-77
2022/03/10 04:25:15;;;;;;;7.57;6.43;;;;;;;3.36;54.83;94794.56;5054136;28;20179;-77
2022/03/10 04:27:42;;;;;;;9.03;7.07;;;;;;;3.34;54.89;94791.31;5054194;28;20597;-76
2022/03/10 04:30:10;;;;;;;10.43;6.90;;;;;;;3.15;54.85;94773.91;5053992;28;20236;-76
2022/03/10 04:32:42;;;;;;;8.47;7.03;;;;;;;3.17;55.09;94777.16;5053360;28;20202;-77
2022/03/10 04:35:09;;;;;;;7.10;5.90;;;;;;;3.26;54.88;94800.16;5053023;28;20226;-74
2022/03/10 04:37:36;;;;;;;7.67;5.97;;;;;;;3.03;54.97;94764.53;5034013;28;20211;-76
2022/03/10 04:40:06;;;;;;;8.67;6.93;;;;;;;3.24;54.77;94801.19;5033778;28;20192;-76
2022/03/10 04:42:33;;;;;;;6.67;5.90;;;;;;;3.20;54.36;94808.13;5034053;28;20282;-75
2022/03/10 04:44:59;;;;;;;8.27;7.17;;;;;;;3.16;54.53;94806.66;5033709;28;20269;-76
2022/03/10 04:47:26;;;;;;;10.17;6.57;;;;;;;3.05;54.54;94790.50;5034085;28;20261;-77
2022/03/10 04:49:54;;;;;;;8.80;6.83;;;;;;;2.93;54.47;94777.69;5033981;28;20187;-76
2022/03/10 04:52:21;;;;;;;6.80;5.97;;;;;;;3.09;54.31;94810.44;5052133;28;20191;-75
2022/03/10 04:54:47;;;;;;;9.57;6.80;;;;;;;3.04;54.33;94807.38;5053918;28;20195;-76
2022/03/10 04:57:16;;;;;;;7.10;5.67;;;;;;;3.11;54.74;94828.88;5053476;28;20231;-77
2022/03/10 04:59:45;;;;;;;7.67;5.97;;;;;;;3.12;54.53;94833.03;5053278;28;20194;-77
2022/03/10 05:02:11;;;;;;;6.30;5.63;;;;;;;2.88;54.06;94796.53;5053268;28;20202;-74
2022/03/10 05:04:38;;;;;;;7.27;5.07;;;;;;;3.17;54.19;94837.81;5053781;28;20218;-75
2022/03/10 05:07:05;;;;;;;5.93;5.30;;;;;;;3.20;53.83;94840.97;5053369;28;20658;-75
2022/03/10 05:09:32;;;;;;;6.27;5.00;;;;;;;3.24;53.86;94847.47;5053113;28;20191;-77
2022/03/10 05:11:59;;;;;;;6.80;5.43;;;;;;;3.09;53.50;94809.63;5052648;28;20213;-75
2022/03/10 05:14:28;;;;;;;7.50;5.30;;;;;;;3.45;53.55;94857.19;5053239;28;20254;-76
2022/03/10 05:16:54;;;;;;;7.27;4.90;;;;;;;3.64;53.25;94860.28;5052690;28;20677;-76
2022/03/10 05:19:21;;;;;;;7.30;5.77;;;;;;;3.91;52.82;94865.38;5053259;28;20227;-75
2022/03/10 05:21:48;;;;;;;8.90;5.63;;;;;;;4.21;52.64;94867.75;5051776;28;20191;-75
2022/03/10 05:24:15;;;;;;;6.20;4.13;;;;;;;4.31;52.27;94842.66;5052993;28;20187;-74
2022/03/10 05:26:42;;;;;;;5.33;4.83;;;;;;;4.77;52.00;94870.97;5052707;28;20195;-75
2022/03/10 05:29:11;;;;;;;5.10;4.57;;;;;;;5.00;51.63;94876.25;5052094;28;20198;-77
2022/03/10 05:31:39;;;;;;;6.73;5.30;;;;;;;5.19;51.63;94886.84;5051670;28;20198;-76
2022/03/10 05:34:07;;;;;;;6.53;5.13;;;;;;;5.32;51.25;94886.03;5052631;28;20214;-75
2022/03/10 05:36:36;;;;;;;6.20;5.37;;;;;;;5.31;51.12;94874.25;5052579;28;20197;-75
2022/03/10 05:39:03;;;;;;;6.40;5.17;;;;;;;5.47;50.80;94898.50;5052923;28;20203;-80
2022/03/10 05:41:31;;;;;;;7.13;5.37;;;;;;;5.50;50.80;94898.31;5052508;28;20183;-76
2022/03/10 05:43:58;;;;;;;6.47;5.53;;;;;;;5.52;50.50;94899.00;5052678;28;20198;-77
2022/03/10 05:46:25;;;;;;;7.03;5.23;;;;;;;5.46;50.43;94894.34;5052111;28;20658;-77
2022/03/10 05:48:53;;;;;;;7.50;6.03;;;;;;;5.53;50.65;94905.72;5049198;28;20195;-76
2022/03/10 05:51:20;;;;;;;6.00;5.50;;;;;;;5.54;50.22;94902.25;5029955;28;20670;-75
2022/03/10 05:53:49;;;;;;;8.93;5.67;;;;;;;5.29;50.08;94856.63;5029512;28;20191;-75
2022/03/10 05:56:16;;;;;;;7.70;5.53;;;;;;;5.64;50.09;94906.72;5030607;28;20199;-77
2022/03/10 05:58:43;;;;;;;7.73;6.40;;;;;;;5.82;49.59;94913.09;5043308;28;20210;-76
2022/03/10 06:01:10;;;;;;;7.40;5.77;;;;;;;6.13;49.15;94911.03;5047371;28;20748;-77
2022/03/10 06:03:37;;;;;;;7.83;6.10;;;;;;;6.51;49.03;94916.81;5048588;28;20685;-75
2022/03/10 06:06:05;;;;;;;7.57;6.03;;;;;;;6.66;49.05;94888.72;5048653;28;20201;-75
2022/03/10 06:08:32;;;;;;;7.63;5.70;;;;;;;7.12;49.04;94909.06;5049051;28;20202;-74
2022/03/10 06:11:01;;;;;;;7.77;6.27;;;;;;;7.70;48.91;94914.97;5048610;28;20585;-76
2022/03/10 06:13:32;;;;;;;7.80;6.17;;;;;;;8.43;49.01;94915.44;5048320;28;20213;-76
2022/03/10 06:15:59;;;;;;;6.43;5.47;;;;;;;9.14;48.66;94926.78;5048852;28;20268;-75
2022/03/10 06:18:25;;;;;;;6.90;6.20;;;;;;;9.61;47.85;94886.34;5048493;28;21887;-75
2022/03/10 06:20:52;;;;;;;7.60;5.60;;;;;;;10.53;46.93;94927.19;5048076;28;20227;-76
2022/03/10 06:23:20;;;;;;;8.43;6.20;;;;;;;11.32;45.88;94931.44;5048010;28;20191;-75
2022/03/10 06:25:47;;;;;;;6.83;5.70;;;;;;;12.07;44.40;94927.22;5047563;28;20195;-81
2022/03/10 06:28:14;;;;;;;6.37;5.30;;;;;;;12.81;43.52;94929.66;5048176;28;20206;-76
2022/03/10 06:30:41;;;;;;;7.60;5.63;;;;;;;13.57;42.56;94931.78;5051004;28;20187;-73
2022/03/10 06:33:08;;;;;;;7.23;5.37;;;;;;;14.26;41.35;94923.19;5050449;28;20195;-76
2022/03/10 06:35:34;;;;;;;6.23;4.90;;;;;;;15.11;40.32;94943.72;5050311;28;20183;-76
2022/03/10 06:38:02;;;;;;;4.60;4.13;;;;;;;15.86;39.00;94938.41;5049621;28;20206;-74
2022/03/10 06:40:30;;;;;;;5.00;4.43;;;;;;;16.63;38.17;94951.56;5049661;28;20191;-75
2022/03/10 06:42:57;;;;;;;5.80;4.77;;;;;;;17.20;37.09;94924.63;5050618;28;20566;-79
2022/03/10 06:45:24;;;;;;;5.37;4.50;;;;;;;18.00;35.68;94943.06;5050148;28;20194;-76
2022/03/10 06:47:50;;;;;;;4.57;4.03;;;;;;;18.53;34.57;94925.63;5050136;28;20187;-75
2022/03/10 06:50:18;;;;;;;5.27;4.77;;;;;;;19.29;33.68;94953.78;5049286;28;20202;-76
2022/03/10 06:52:45;;;;;;;5.50;4.57;;;;;;;19.83;32.57;94952.50;5049399;28;20195;-74
2022/03/10 06:55:11;;;;;;;5.33;4.83;;;;;;;20.38;32.02;94953.44;5051119;28;20194;-74
2022/03/10 06:57:40;;;;;;;4.63;4.23;;;;;;;20.72;31.31;94944.81;5049747;28;20223;-75
2022/03/10 07:00:08;;;;;;;4.27;3.87;;;;;;;21.30;30.51;94968.63;5047327;28;20202;-74
2022/03/10 07:02:35;;;;;;;4.60;4.20;;;;;;;21.73;29.85;94968.31;5050012;28;20691;-76
2022/03/10 07:05:03;;;;;;;4.53;4.07;;;;;;;22.14;29.15;94978.53;5050072;28;20201;-76
2022/03/10 07:07:29;;;;;;;4.10;3.70;;;;;;;22.51;28.39;94978.88;5050138;28;20199;-75
2022/03/10 07:09:56;;;;;;;4.43;3.65;;;;;;;22.85;28.28;94979.59;5049256;28;20187;-75
2022/03/10 07:12:23;;;;;;;3.90;3.50;;;;;;;23.13;27.21;94981.88;5051069;28;20179;-77
2022/03/10 07:14:51;;;;;;;3.17;2.90;;;;;;;23.45;27.37;94977.50;5049001;28;20211;-75
2022/03/10 07:17:18;;;;;;;3.22;2.92;;;;;;;23.69;26.88;94984.59;5047806;28;20194;-76
2022/03/10 07:19:46;;;;;;;3.25;2.95;;;;;;;23.97;26.61;94988.63;5049552;28;20226;-74
2022/03/10 07:22:13;;;;;;;3.15;2.92;;;;;;;24.26;26.05;94980.09;5049022;28;20221;-75
2022/03/10 07:24:39;;;;;;;3.28;3.08;;;;;;;24.48;25.46;94974.47;5049522;28;20206;-75
2022/03/10 07:27:07;;;;;;;3.38;3.08;;;;;;;24.81;25.23;94987.22;5049086;28;20689;-77
2022/03/10 07:29:33;;;;;;;3.65;3.30;;;;;;;25.03;24.74;94998.03;5049756;28;20187;-76
2022/03/10 07:32:02;;;;;;;3.47;3.17;;;;;;;25.17;24.51;94993.44;5049161;28;20206;-75
2022/03/10 07:34:29;;;;;;;3.60;3.30;;;;;;;25.15;24.85;94995.50;5049152;28;20725;-76
2022/03/10 07:36:55;;;;;;;3.47;3.13;;;;;;;24.98;24.18;94958.63;5048863;28;20198;-76
2022/03/10 07:39:23;;;;;;;3.95;3.17;;;;;;;25.35;23.15;95005.72;5048117;28;20207;-76
2022/03/10 07:41:50;;;;;;;3.25;2.95;;;;;;;25.13;23.00;94955.66;5048279;28;20712;-75
2022/03/10 07:44:16;;;;;;;3.38;3.08;;;;;;;25.59;22.90;95003.97;5048956;28;20585;-75
2022/03/10 07:46:43;;;;;;;3.00;2.80;;;;;;;25.64;22.84;95004.09;5049790;28;20604;-76
2022/03/10 07:49:12;;;;;;;4.00;3.05;;;;;;;25.67;22.48;95006.28;5048317;28;20986;-74
2022/03/10 07:51:42;;;;;;;2.75;2.55;;;;;;;25.48;22.24;94997.69;5046301;28;20187;-73
2022/03/10 07:54:09;;;;;;;2.70;2.50;;;;;;;25.64;21.73;95010.13;5045842;28;20190;-75
2022/03/10 07:56:36;;;;;;;2.75;2.45;;;;;;;25.76;22.13;95016.25;5045884;28;20670;-77
2022/03/10 07:59:03;;;;;;;2.90;2.50;;;;;;;25.72;21.69;95009.81;5051115;28;20222;-76
2022/03/10 08:01:31;;;;;;;2.58;2.38;;;;;;;25.59;21.12;95017.06;5049145;28;20525;-77
2022/03/10 08:03:57;;;;;;;2.60;2.40;;;;;;;25.47;21.06;95017.03;5048857;28;20215;-76
2022/03/10 08:06:27;;;;;;;2.35;2.15;;;;;;;25.40;20.97;95014.50;5047171;28;20666;-82
2022/03/10 08:08:55;;;;;;;2.60;2.28;;;;;;;25.42;20.96;95027.38;5046150;28;20199;-78
2022/03/10 08:11:21;;;;;;;2.58;2.38;;;;;;;25.41;21.19;95008.25;5047542;28;20202;-78
2022/03/10 08:13:48;;;;;;;3.33;2.72;;;;;;;25.21;20.88;94995.41;5048728;28;20472;-77
2022/03/10 08:16:16;;;;;;;2.80;2.60;;;;;;;25.37;21.01;95017.56;5049280;28;20219;-74
2022/03/10 08:18:44;;;;;;;2.85;2.65;;;;;;;24.99;21.49;94996.88;5049096;28;20705;-73
2022/03/10 08:21:11;;;;;;;3.35;2.30;;;;;;;24.94;28.23;95013.22;5048708;28;20234;-76
2022/03/10 08:23:39;;;;;;;2.25;1.90;;;;;;;24.81;31.15;95017.81;5046552;28;20883;-74
2022/03/10 08:26:08;;;;;;;2.38;1.80;;;;;;;24.59;32.57;95020.06;5046365;28;20203;-81
2022/03/10 08:28:35;;;;;;;2.97;2.78;;;;;;;24.34;31.90;95026.06;5043914;28;20750;-74
2022/03/10 08:31:04;;;;;;;3.08;2.75;;;;;;;24.12;30.20;95017.03;5044653;28;20191;-73
2022/03/10 08:33:31;;;;;;;3.40;2.97;;;;;;;23.95;28.26;95021.97;5044298;28;20241;-71
2022/03/10 08:35:58;;;;;;;3.30;3.00;;;;;;;23.87;26.79;95023.03;5048238;28;20198;-73
2022/03/10 08:38:25;;;;;;;3.58;2.88;;;;;;;23.72;25.55;95033.00;5048416;28;20211;-75
2022/03/10 08:40:53;;;;;;;3.28;2.65;;;;;;;23.22;25.01;95025.78;5048427;28;20285;-76
2022/03/10 08:43:22;;;;;;;3.30;2.78;;;;;;;22.59;24.47;95030.00;5048694;28;20680;-74
2022/03/10 08:45:48;;;;;;;4.57;3.30;;;;;;;21.87;24.32;95016.78;5048456;28;20183;-74
2022/03/10 08:48:15;;;;;;;3.85;3.30;;;;;;;21.32;23.98;95017.88;5048571;28;20202;-76
2022/03/10 08:50:42;;;;;;;4.53;2.72;;;;;;;20.74;23.86;95029.44;5048254;28;20195;-74
2022/03/10 08:53:09;;;;;;;3.60;3.30;;;;;;;20.10;23.81;95028.78;5047924;28;20187;-75
2022/03/10 08:55:36;;;;;;;4.63;4.00;;;;;;;19.45;23.80;95035.75;5046759;28;20252;-75
2022/03/10 08:58:04;;;;;;;5.17;3.40;;;;;;;18.85;23.94;95037.66;5043650;28;20214;-75
2022/03/10 09:00:32;;;;;;;5.03;3.73;;;;;;;18.27;24.32;95027.06;5045665;28;20604;-74
2022/03/10 09:02:59;;;;;;;3.90;3.60;;;;;;;17.54;24.58;94997.41;5048416;28;20760;-73
2022/03/10 09:05:29;;;;;;;4.00;3.63;;;;;;;17.23;24.88;95030.28;5051202;28;20574;-82
2022/03/10 09:07:55;;;;;;;4.13;3.50;;;;;;;16.79;25.30;95029.00;5052057;28;20273;-73
2022/03/10 09:10:22;;;;;;;4.77;3.70;;;;;;;16.42;25.60;95021.84;5051889;28;20194;-75
2022/03/10 09:12:49;;;;;;;3.33;3.03;;;;;;;16.04;25.63;95029.31;5051701;28;20206;-75
2022/03/10 09:15:18;;;;;;;8.90;3.27;;;;;;;15.66;26.03;95020.47;5051458;28;20656;-74
2022/03/10 09:17:44;;;;;;;3.57;3.10;;;;;;;15.30;26.15;95023.28;5051635;28;20214;-75
2022/03/10 09:20:13;;;;;;;5.47;3.20;;;;;;;14.94;26.41;95012.44;5051836;28;20238;-75
2022/03/10 09:22:41;;;;;;;3.30;3.00;;;;;;;14.63;26.67;95017.28;5051601;28;20282;-75
2022/03/10 09:25:09;;;;;;;4.97;3.20;;;;;;;14.32;26.73;95017.75;5052031;28;20191;-77
2022/03/10 09:27:36;;;;;;;3.93;3.40;;;;;;;13.94;27.17;94998.38;5051657;28;20622;-77
2022/03/10 09:30:03;;;;;;;4.33;3.63;;;;;;;13.70;27.23;95024.72;5051663;28;20210;-77
2022/03/10 09:32:36;;;;;;;6.07;4.07;;;;;;;13.36;27.28;95010.94;5051573;28;20191;-76
2022/03/10 09:35:03;;;;;;;5.63;4.10;;;;;;;13.09;27.48;95015.16;5051421;28;20198;-75
2022/03/10 09:37:30;;;;;;;6.10;3.70;;;;;;;13.00;27.39;95013.47;5052325;28;20195;-74
2022/03/10 09:39:57;;;;;;;4.20;3.43;;;;;;;12.95;27.18;95018.19;5052153;28;20226;-75
2022/03/10 09:42:28;;;;;;;4.33;2.67;;;;;;;12.98;27.08;95016.16;5051096;28;20206;-76
2022/03/10 09:44:58;;;;;;;5.03;3.47;;;;;;;12.97;27.16;95024.00;5051209;28;20266;-78
2022/03/10 09:47:25;;;;;;;3.27;2.97;;;;;;;13.01;27.38;95015.88;5051991;28;20179;-74
2022/03/10 09:49:53;;;;;;;5.00;3.00;;;;;;;12.92;26.90;94995.41;5051460;28;20257;-76
2022/03/10 09:52:20;;;;;;;2.90;2.70;;;;;;;13.09;27.03;95020.28;5051361;28;20573;-76
2022/03/10 09:54:47;;;;;;;3.73;3.13;;;;;;;13.10;26.98;95018.53;5051291;28;20198;-77
2022/03/10 09:57:16;;;;;;;3.20;2.90;;;;;;;13.03;26.80;95013.97;5051410;28;20186;-79
2022/03/10 09:59:50;;;;;;;3.13;2.90;;;;;;;13.00;26.83;95010.91;5050897;28;20222;-78
2022/03/10 10:02:17;;;;;;;3.70;2.83;;;;;;;12.97;26.67;95013.75;5043968;28;20249;-75
2022/03/10 10:04:44;;;;;;;3.30;3.00;;;;;;;13.00;26.81;95005.75;5048830;28;21012;-76
2022/03/10 10:07:13;;;;;;;3.90;2.87;;;;;;;13.03;27.09;95023.41;5048857;28;20282;-78
2022/03/10 10:09:41;;;;;;;3.03;2.80;;;;;;;12.95;27.12;95016.47;5049129;28;20202;-78
2022/03/10 10:12:10;;;;;;;2.80;2.60;;;;;;;12.87;26.87;95018.13;5047254;28;20195;-78
2022/03/10 10:14:37;;;;;;;2.73;2.53;;;;;;;12.94;26.96;95022.53;5048326;28;20202;-76
2022/03/10 10:17:05;;;;;;;2.70;2.50;;;;;;;12.96;26.78;95024.97;5048562;28;20198;-75
2022/03/10 10:19:37;;;;;;;3.27;2.80;;;;;;;12.83;26.88;95022.75;5048166;28;20254;-78
2022/03/10 10:22:16;;;;;;;3.17;2.40;;;;;;;12.66;27.03;95036.34;5048574;28;20206;-78
2022/03/10 10:24:50;;;;;;;3.23;2.93;;;;;;;12.49;27.12;95032.75;5046190;28;20326;-77
2022/03/10 10:27:18;;;;;;;3.27;2.97;;;;;;;12.26;27.36;95025.41;5047984;28;20715;-76
2022/03/10 10:29:48;;;;;;;3.20;2.90;;;;;;;11.69;27.38;94970.72;5050640;28;20191;-77
2022/03/10 10:32:25;;;;;;;3.37;3.07;;;;;;;11.77;27.60;95008.47;5048129;28;20195;-75
2022/03/10 10:35:03;;;;;;;4.43;3.20;;;;;;;11.74;27.74;95021.53;5047137;28;20909;-77
2022/03/10 10:37:32;;;;;;;5.73;3.47;;;;;;;11.59;28.14;95023.72;5049298;28;20202;-78
2022/03/10 10:39:59;;;;;;;3.27;3.07;;;;;;;11.59;28.08;95028.03;5047673;28;20253;-77
2022/03/10 10:42:28;;;;;;;2.73;2.53;;;;;;;11.38;28.49;95018.72;5048395;28;20213;-80
2022/03/10 10:44:55;;;;;;;3.47;3.17;;;;;;;11.51;28.35;95036.41;5047747;28;20187;-76
2022/03/10 10:47:22;;;;;;;3.27;2.93;;;;;;;11.45;28.38;95035.19;5048498;28;20195;-78
2022/03/10 10:49:57;;;;;;;3.73;3.37;;;;;;;11.43;28.37;95034.50;5048029;28;20915;-75
2022/03/10 10:52:25;;;;;;;2.90;2.60;;;;;;;11.27;28.17;94998.41;5047117;28;20289;-77
2022/03/10 10:55:06;;;;;;;3.07;2.70;;;;;;;11.32;28.04;95021.84;5047769;28;20199;-76
2022/03/10 10:57:35;;;;;;;3.93;2.67;;;;;;;11.10;28.23;95012.66;5047867;28;20202;-75
2022/03/10 11:00:11;;;;;;;3.23;2.87;;;;;;;10.89;28.30;94999.16;5047319;28;20301;-75
2022/03/10 11:02:43;;;;;;;2.80;2.60;;;;;;;11.05;28.47;95004.56;5047507;28;20198;-75
2022/03/10 11:05:11;;;;;;;3.00;2.70;;;;;;;10.87;28.35;94955.78;5047667;28;20310;-78
2022/03/10 11:07:40;;;;;;;3.77;2.90;;;;;;;11.35;28.65;95016.44;5048046;28;20210;-78
2022/03/10 11:10:11;;;;;;;2.97;2.77;;;;;;;11.48;28.38;95003.34;5047970;28;20183;-75
2022/03/10 11:12:41;;;;;;;2.90;2.70;;;;;;;11.44;28.56;95013.09;5047732;28;20199;-75
2022/03/10 11:15:10;;;;;;;3.43;3.13;;;;;;;11.36;28.60;95012.94;5044654;28;20231;-76
2022/03/10 11:17:38;;;;;;;3.30;3.00;;;;;;;11.21;28.66;95009.97;5044773;28;20674;-76
2022/03/10 11:20:09;;;;;;;3.77;2.90;;;;;;;10.94;28.59;94990.13;5046886;28;20245;-76
2022/03/10 11:22:47;;;;;;;3.77;3.47;;;;;;;10.94;28.77;95009.81;5047412;28;20187;-76
2022/03/10 11:25:39;;;;;;;3.17;2.87;;;;;;;10.65;29.06;94992.63;5046780;28;20891;-77
2022/03/10 11:28:12;;;;;;;3.60;3.30;;;;;;;10.73;29.17;95009.88;5046337;28;20260;-76
2022/03/10 11:30:40;;;;;;;5.97;3.23;;;;;;;10.78;29.21;95010.31;5043613;28;20211;-77
2022/03/10 11:33:12;;;;;;;5.33;3.50;;;;;;;10.77;29.35;95012.06;5044080;28;20981;-74
2022/03/10 11:35:42;;;;;;;7.33;3.33;;;;;;;10.66;29.23;95014.69;5046204;28;20202;-78
2022/03/10 11:38:09;;;;;;;5.50;3.37;;;;;;;10.48;29.03;95014.50;5046814;28;20191;-81
2022/03/10 11:40:49;;;;;;;3.50;3.20;;;;;;;10.35;29.63;95026.69;5046460;28;20220;-77
2022/03/10 11:43:41;;;;;;;4.53;3.33;;;;;;;10.30;29.92;95023.72;5044641;28;20199;-76